createdAt,value
2018-12-06T00:30:25.300Z,9.88
2018-12-06T00:33:11.940Z,9.88
2018-12-06T00:35:58.987Z,11.78
2018-12-06T00:38:45.962Z,9.85
2018-12-06T00:41:33.245Z,9.60
2018-12-06T00:44:20.372Z,11.12
2018-12-06T00:47:07.240Z,10.90
2018-12-06T00:49:54.249Z,10.32
2018-12-06T00:52:42.054Z,11.05
2018-12-06T00:55:28.823Z,11.63
2018-12-06T00:58:16.246Z,11.35
2018-12-06T01:01:03.018Z,12.50
2018-12-06T01:03:50.197Z,11.57
2018-12-06T01:06:37.126Z,12.90
2018-12-06T01:09:23.943Z,12.20
2018-12-06T01:12:11.242Z,13.00
2018-12-06T01:14:58.077Z,14.40
2018-12-06T01:17:44.895Z,15.18
2018-12-06T01:20:32.053Z,18.05
2018-12-06T01:23:18.938Z,16.30
2018-12-06T01:26:06.235Z,15.65
2018-12-06T01:28:53.005Z,19.10
2018-12-06T01:31:40.344Z,17.40
2018-12-06T01:37:16.397Z,22.73
2018-12-06T01:40:02.066Z,17.48
2018-12-06T03:18:08.109Z,23.40
2018-12-06T03:20:56.718Z,23.87
2018-12-06T03:41:57.651Z,24.02
2018-12-06T03:44:46.371Z,23.05
2018-12-06T03:47:35.383Z,22.05
2018-12-06T03:56:05.962Z,21.12
2018-12-06T03:58:54.524Z,21.80
2018-12-06T04:05:01.897Z,26.00
2018-12-06T04:07:50.632Z,21.75
2018-12-06T04:47:10.634Z,22.60
2018-12-06T04:49:58.535Z,27.30
2018-12-06T05:10:51.529Z,24.30
2018-12-06T05:13:40.433Z,25.77
2018-12-06T05:16:29.199Z,32.00
2018-12-06T05:22:03.579Z,23.62
2018-12-06T05:24:52.215Z,24.05
2018-12-06T05:30:30.343Z,23.15
2018-12-06T06:26:03.388Z,21.48
2018-12-06T06:43:56.846Z,19.42
2018-12-06T06:46:45.504Z,20.55
2018-12-06T09:44:55.469Z,7.33
2018-12-06T09:47:43.280Z,6.12
2018-12-06T09:50:31.925Z,6.33
2018-12-06T09:56:25.855Z,5.67
2018-12-06T09:59:14.534Z,5.55
2018-12-06T11:09:02.922Z,6.95
2018-12-06T11:11:49.790Z,6.60
2018-12-06T11:14:37.115Z,5.40
2018-12-06T11:17:22.347Z,7.35
2018-12-06T11:22:58.635Z,7.58
2018-12-06T11:25:45.719Z,6.72
2018-12-06T11:28:32.454Z,7.05
2018-12-06T11:31:19.480Z,6.90
2018-12-06T11:34:06.442Z,6.28
2018-12-06T11:36:53.594Z,6.42
2018-12-06T11:39:40.044Z,6.85
2018-12-06T11:42:27.358Z,5.78
2018-12-06T11:45:13.905Z,7.33
2018-12-06T11:48:01.266Z,7.17
2018-12-06T11:53:34.893Z,7.90
2018-12-06T11:56:21.882Z,8.13
2018-12-06T11:59:08.499Z,6.58
2018-12-06T12:01:55.047Z,7.47
2018-12-06T12:04:43.079Z,7.42
2018-12-06T12:07:29.792Z,6.50
2018-12-06T12:10:16.490Z,6.72
2018-12-06T12:13:03.431Z,6.62
2018-12-06T12:15:50.437Z,6.50
2018-12-06T12:18:39.592Z,5.30
2018-12-06T12:21:26.514Z,5.75
2018-12-06T12:29:47.472Z,5.50
2018-12-06T12:32:32.621Z,5.70
2018-12-06T13:37:04.730Z,8.78
2018-12-06T13:58:37.662Z,6.95
2018-12-06T14:01:26.656Z,8.45
2018-12-06T15:05:47.722Z,12.20
2018-12-06T15:08:36.477Z,13.70
2018-12-06T15:39:14.224Z,10.30
2018-12-06T16:00:31.995Z,13.38
2018-12-06T16:06:25.985Z,14.50
2018-12-06T16:09:14.596Z,12.98
2018-12-06T17:10:53.251Z,9.18
2018-12-06T17:13:46.198Z,9.93
2018-12-06T21:53:15.966Z,3.55
2018-12-06T21:56:03.432Z,4.40
2018-12-06T21:58:50.442Z,3.65
2018-12-06T22:01:37.699Z,4.62
2018-12-06T22:04:24.417Z,4.92
2018-12-06T22:07:11.287Z,4.10
2018-12-06T22:09:58.142Z,4.90
2018-12-06T22:12:45.520Z,5.10
2018-12-06T22:15:32.923Z,3.98
2018-12-06T22:18:19.674Z,3.72
2018-12-06T22:21:06.559Z,4.03
2018-12-06T22:23:53.199Z,4.45
2018-12-06T22:26:40.390Z,4.42
2018-12-06T22:29:27.327Z,5.65
2018-12-06T22:32:32.413Z,4.12
2018-12-06T22:35:01.237Z,3.60
2018-12-06T22:37:29.771Z,3.52
2018-12-06T22:39:58.339Z,4.08
2018-12-06T22:42:27.040Z,4.03
2018-12-06T22:45:08.230Z,4.05
2018-12-06T22:47:37.976Z,3.80
2018-12-06T22:50:06.770Z,3.37
2018-12-06T22:52:36.249Z,3.92
2018-12-06T22:55:05.587Z,3.05
2018-12-06T22:57:34.245Z,4.10
2018-12-06T23:00:04.727Z,3.92
2018-12-06T23:02:33.367Z,3.12
2018-12-06T23:05:02.201Z,3.20
2018-12-06T23:07:30.827Z,3.00
2018-12-06T23:10:03.157Z,3.72
2018-12-06T23:12:31.587Z,3.98
2018-12-06T23:15:00.339Z,4.05
2018-12-06T23:17:29.112Z,4.28
2018-12-06T23:19:57.740Z,4.28
2018-12-06T23:22:26.401Z,5.28
2018-12-06T23:24:55.092Z,4.37
2018-12-06T23:27:24.789Z,4.72
2018-12-06T23:29:53.279Z,6.03
2018-12-06T23:32:21.820Z,4.65
2018-12-06T23:34:50.255Z,5.25
2018-12-06T23:37:18.723Z,4.30
2018-12-06T23:39:47.385Z,3.70
2018-12-06T23:42:16.159Z,4.58
2018-12-06T23:44:45.102Z,4.25
2018-12-06T23:47:13.988Z,3.62
2018-12-06T23:49:42.481Z,5.12
2018-12-06T23:52:11.341Z,4.40
2018-12-06T23:54:39.791Z,4.15
2018-12-06T23:57:08.289Z,3.80
2018-12-06T23:59:37.240Z,4.17
